Time;durP1;ratioP1;P1;durP2;ratioP2;P2;SDS_P1;SDS_P2;PMS_P1;PMS_P2;Temp;Humidity;BMP_temperature;BMP_pressure;BME280_temperature;BME280_humidity;BME280_pressure;Samples;Min_cycle;Max_cycle;Signal;HPM_P1;HPM_P2
2023/11/06 00:01:17;;;;;;;1.25;0.60;;;12.40;67.60;;;;;;4859417;29;20054;-92
2023/11/06 00:03:44;;;;;;;1.35;0.68;;;12.30;67.80;;;;;;4860820;29;20092;-91
2023/11/06 00:06:11;;;;;;;2.03;0.80;;;12.30;67.70;;;;;;4860140;29;20042;-92
2023/11/06 00:08:39;;;;;;;1.60;0.90;;;12.30;68.00;;;;;;4845029;29;20128;-92
2023/11/06 00:11:06;;;;;;;2.15;0.70;;;12.30;67.60;;;;;;4860659;29;20501;-92
2023/11/06 00:13:33;;;;;;;1.80;0.70;;;12.30;67.30;;;;;;4849029;29;20129;-91
2023/11/06 00:16:00;;;;;;;2.50;0.70;;;12.30;67.30;;;;;;4860889;29;20516;-91
2023/11/06 00:18:31;;;;;;;2.38;0.90;;;12.30;67.40;;;;;;4860156;29;20085;-92
2023/11/06 00:20:59;;;;;;;2.10;0.90;;;12.30;66.90;;;;;;4853112;29;20431;-91
2023/11/06 00:23:26;;;;;;;3.50;0.85;;;12.30;67.10;;;;;;4845563;29;20183;-91
2023/11/06 00:25:53;;;;;;;1.88;0.80;;;12.30;67.10;;;;;;4843376;29;20050;-91
2023/11/06 00:28:20;;;;;;;1.80;0.60;;;12.30;66.40;;;;;;4856346;29;20500;-91
2023/11/06 00:30:47;;;;;;;2.67;0.80;;;12.20;66.60;;;;;;4860042;29;20068;-91
2023/11/06 00:33:14;;;;;;;1.20;0.67;;;12.20;66.80;;;;;;4845897;29;20073;-91
2023/11/06 00:35:41;;;;;;;2.10;0.70;;;12.20;66.90;;;;;;4844802;29;20110;-91
2023/11/06 00:38:11;;;;;;;1.65;0.70;;;12.20;67.10;;;;;;4844886;29;20042;-92
2023/11/06 00:40:38;;;;;;;2.00;0.63;;;12.30;67.00;;;;;;4859877;29;20042;-91
2023/11/06 00:43:06;;;;;;;1.65;0.63;;;12.20;66.70;;;;;;4859830;29;20050;-91
2023/11/06 00:45:33;;;;;;;4.23;0.70;;;12.20;66.80;;;;;;4841367;29;20505;-91
2023/11/06 00:48:00;;;;;;;1.55;0.60;;;12.30;66.80;;;;;;4844225;29;20110;-91
2023/11/06 00:50:27;;;;;;;1.42;0.80;;;12.30;66.80;;;;;;4844530;29;20421;-91
2023/11/06 00:52:56;;;;;;;1.77;0.88;;;12.20;66.70;;;;;;4844476;29;20057;-91
2023/11/06 00:55:25;;;;;;;0.95;0.68;;;12.20;66.10;;;;;;4844765;29;20045;-91
2023/11/06 00:57:53;;;;;;;1.27;0.60;;;12.20;66.20;;;;;;4859503;29;20428;-90
2023/11/06 01:00:22;;;;;;;1.95;0.60;;;12.20;66.40;;;;;;4844294;29;20049;-90
2023/11/06 01:02:49;;;;;;;2.38;0.70;;;12.10;66.40;;;;;;4838514;29;20054;-91
2023/11/06 01:05:17;;;;;;;1.00;0.57;;;12.10;66.30;;;;;;4845705;29;20079;-90
2023/11/06 01:07:44;;;;;;;1.13;0.60;;;12.00;66.80;;;;;;4844150;29;20057;-90
2023/11/06 01:10:14;;;;;;;2.53;0.80;;;12.00;66.90;;;;;;4859430;29;20057;-91
2023/11/06 01:12:41;;;;;;;5.47;0.70;;;12.00;67.30;;;;;;4859286;29;20090;-91
2023/11/06 01:15:08;;;;;;;4.60;0.82;;;12.00;67.60;;;;;;4859912;29;20057;-93
2023/11/06 01:17:35;;;;;;;1.92;0.68;;;12.00;67.40;;;;;;4871948;29;20054;-90
2023/11/06 01:20:04;;;;;;;2.58;0.60;;;11.90;67.50;;;;;;4839640;29;20590;-91
2023/11/06 01:22:31;;;;;;;4.47;0.70;;;11.80;67.60;;;;;;4859309;29;20048;-90
2023/11/06 01:25:08;;;;;;;1.85;0.70;;;11.70;67.70;;;;;;4844239;29;20049;-91
2023/11/06 01:27:35;;;;;;;3.47;0.65;;;11.80;68.20;;;;;;4843778;29;20046;-91
2023/11/06 01:30:04;;;;;;;1.70;0.60;;;11.80;68.20;;;;;;4859027;29;20099;-90
2023/11/06 01:32:31;;;;;;;2.67;0.70;;;11.80;68.20;;;;;;4843650;29;20049;-91
2023/11/06 01:34:58;;;;;;;4.93;0.70;;;11.80;68.30;;;;;;4843971;29;20050;-91
2023/11/06 01:37:26;;;;;;;1.45;0.50;;;11.70;67.80;;;;;;4843800;29;20069;-91
2023/11/06 01:39:53;;;;;;;3.70;0.80;;;11.80;67.70;;;;;;4843786;29;20054;-91
2023/11/06 01:42:20;;;;;;;2.40;0.75;;;11.70;67.50;;;;;;4828593;29;20054;-93
2023/11/06 01:44:47;;;;;;;2.72;0.80;;;11.70;67.50;;;;;;4840572;29;20046;-91
2023/11/06 01:47:14;;;;;;;2.10;0.60;;;11.70;67.10;;;;;;4840413;29;20042;-90
2023/11/06 01:49:46;;;;;;;2.65;0.70;;;11.70;67.20;;;;;;4858646;29;20050;-91
2023/11/06 01:52:17;;;;;;;2.50;0.70;;;11.60;67.10;;;;;;4843585;29;20095;-90
2023/11/06 01:54:44;;;;;;;3.88;0.98;;;11.60;67.30;;;;;;4864290;29;20065;-91
2023/11/06 01:57:14;;;;;;;2.65;0.85;;;11.60;67.20;;;;;;4833053;29;20519;-91
2023/11/06 01:59:42;;;;;;;2.17;0.70;;;11.60;67.20;;;;;;4858660;29;20053;-91
2023/11/06 02:03:05;;;;;;;1.92;0.60;;;11.60;66.90;;;;;;5293008;24;20061;-84
2023/11/06 02:06:16;;;;;;;3.90;0.80;;;11.60;66.80;;;;;;4821386;29;20501;-84
2023/11/06 02:08:44;;;;;;;1.15;0.47;;;11.50;66.10;;;;;;4838126;29;20517;-85
2023/11/06 02:11:11;;;;;;;4.07;0.68;;;11.50;66.00;;;;;;4830888;29;20077;-85
2023/11/06 02:13:39;;;;;;;2.33;0.67;;;11.50;66.20;;;;;;4823478;29;20178;-86
2023/11/06 02:16:07;;;;;;;2.10;0.50;;;11.50;65.70;;;;;;4837699;29;20094;-85
2023/11/06 02:18:34;;;;;;;1.65;0.60;;;11.50;65.10;;;;;;4823359;29;20053;-84
2023/11/06 02:21:02;;;;;;;1.73;0.55;;;11.50;65.10;;;;;;4838089;29;20050;-85
2023/11/06 02:23:30;;;;;;;1.33;0.65;;;11.40;65.10;;;;;;4837489;29;20054;-85
2023/11/06 02:25:57;;;;;;;1.63;0.60;;;11.40;64.70;;;;;;4823239;29;20050;-86
2023/11/06 02:28:24;;;;;;;2.30;0.47;;;11.40;64.30;;;;;;4838089;29;20485;-85
2023/11/06 02:30:52;;;;;;;2.47;0.55;;;11.40;63.90;;;;;;4820792;29;20557;-84
2023/11/06 02:33:19;;;;;;;1.75;0.60;;;11.30;63.40;;;;;;4808659;29;20133;-85
2023/11/06 02:35:50;;;;;;;2.17;0.80;;;11.30;63.30;;;;;;4822932;29;20133;-85
2023/11/06 02:38:17;;;;;;;2.73;0.60;;;11.40;63.50;;;;;;4807825;29;20050;-85
2023/11/06 02:40:44;;;;;;;2.22;0.60;;;11.40;63.70;;;;;;4818635;29;20133;-85
2023/11/06 02:43:12;;;;;;;1.52;0.73;;;11.40;63.30;;;;;;4823160;29;20046;-85
2023/11/06 02:45:38;;;;;;;3.58;0.80;;;11.30;63.20;;;;;;4823038;29;20569;-85
2023/11/06 02:48:05;;;;;;;1.65;0.60;;;11.30;63.40;;;;;;4823176;29;20055;-85
2023/11/06 02:50:33;;;;;;;1.77;0.70;;;11.20;63.00;;;;;;4805739;29;20046;-85
2023/11/06 02:53:00;;;;;;;2.97;0.80;;;11.20;62.70;;;;;;4838054;29;20565;-85
2023/11/06 02:55:27;;;;;;;3.13;0.60;;;11.20;63.10;;;;;;4835608;29;20042;-85
2023/11/06 02:57:55;;;;;;;2.05;0.70;;;11.20;62.60;;;;;;4824322;29;20057;-86
2023/11/06 03:00:22;;;;;;;1.77;0.55;;;11.20;62.90;;;;;;4837090;29;20043;-85
2023/11/06 03:02:49;;;;;;;2.37;0.60;;;11.10;62.20;;;;;;4836472;29;20062;-86
2023/11/06 03:05:18;;;;;;;2.03;0.80;;;11.20;62.40;;;;;;4838628;29;20144;-85
2023/11/06 03:07:45;;;;;;;4.60;0.90;;;11.20;62.40;;;;;;4855643;29;20042;-85
2023/11/06 03:10:14;;;;;;;1.95;0.60;;;11.10;62.30;;;;;;4840895;29;20049;-85
2023/11/06 03:12:41;;;;;;;3.92;0.70;;;11.10;62.30;;;;;;4828224;29;20489;-85
2023/11/06 03:15:10;;;;;;;1.10;0.50;;;11.10;62.50;;;;;;4840144;29;20110;-85
2023/11/06 03:17:38;;;;;;;1.83;0.60;;;11.10;62.30;;;;;;4854342;29;20049;-85
2023/11/06 03:20:10;;;;;;;2.25;0.70;;;11.00;62.40;;;;;;4845667;29;20053;-86
2023/11/06 03:22:38;;;;;;;1.15;0.68;;;11.00;62.70;;;;;;4847628;29;20398;-85
2023/11/06 03:25:09;;;;;;;1.52;0.80;;;11.00;62.50;;;;;;4825880;29;20056;-85
2023/11/06 03:27:36;;;;;;;1.87;0.70;;;11.00;62.80;;;;;;4830456;29;20401;-85
2023/11/06 03:30:04;;;;;;;2.42;0.60;;;11.00;62.40;;;;;;4841857;29;20046;-84
2023/11/06 03:32:32;;;;;;;3.05;0.77;;;11.00;62.30;;;;;;4855647;29;20721;-85
2023/11/06 03:35:00;;;;;;;1.48;0.55;;;11.00;62.30;;;;;;4825802;29;20046;-84
2023/11/06 03:37:27;;;;;;;2.08;0.90;;;11.00;62.50;;;;;;4855464;29;20049;-85
2023/11/06 03:39:54;;;;;;;1.70;0.60;;;11.00;62.20;;;;;;4839280;29;20053;-85
2023/11/06 03:42:21;;;;;;;1.98;0.70;;;11.00;62.20;;;;;;4855586;29;20050;-85
2023/11/06 03:44:50;;;;;;;2.88;0.68;;;11.00;62.10;;;;;;4840573;29;20049;-85
2023/11/06 03:47:17;;;;;;;2.35;0.90;;;11.00;62.30;;;;;;4855868;29;20049;-85
2023/11/06 03:49:44;;;;;;;1.33;0.60;;;11.00;61.90;;;;;;4843030;29;20039;-85
2023/11/06 03:52:11;;;;;;;2.20;0.70;;;11.00;62.10;;;;;;4843097;29;20049;-85
2023/11/06 03:54:39;;;;;;;1.95;0.70;;;11.00;61.80;;;;;;4842021;29;20457;-85
2023/11/06 03:57:06;;;;;;;1.92;0.50;;;10.90;62.00;;;;;;4851812;29;20065;-86
2023/11/06 03:59:34;;;;;;;1.13;0.50;;;11.00;61.90;;;;;;4840461;29;20500;-84
2023/11/06 04:02:01;;;;;;;1.75;0.70;;;11.00;62.10;;;;;;4840128;29;20061;-85
2023/11/06 04:04:28;;;;;;;1.67;0.50;;;10.90;61.70;;;;;;4855504;29;20056;-83
2023/11/06 04:06:55;;;;;;;1.80;0.70;;;10.90;61.90;;;;;;4840251;29;20066;-84
2023/11/06 04:09:22;;;;;;;1.85;0.60;;;10.90;61.80;;;;;;4840083;29;20046;-84
2023/11/06 04:11:49;;;;;;;2.30;0.70;;;10.90;62.10;;;;;;4855675;29;20052;-84
2023/11/06 04:14:16;;;;;;;2.10;0.75;;;10.80;61.90;;;;;;4839884;29;20045;-85
2023/11/06 04:16:43;;;;;;;2.90;0.67;;;10.90;61.50;;;;;;4855674;29;20503;-84
2023/11/06 04:19:11;;;;;;;1.92;0.57;;;10.90;61.50;;;;;;4847293;29;20125;-85
2023/11/06 04:21:38;;;;;;;1.85;0.65;;;10.90;61.80;;;;;;4836813;29;20053;-85
2023/11/06 04:24:06;;;;;;;1.65;0.60;;;11.00;61.70;;;;;;4855148;29;20057;-85
2023/11/06 04:26:33;;;;;;;1.63;0.45;;;11.00;61.60;;;;;;4854277;29;20046;-85
2023/11/06 04:29:00;;;;;;;2.60;0.70;;;10.90;61.40;;;;;;4840995;29;20038;-84
2023/11/06 04:31:27;;;;;;;2.80;0.55;;;10.90;61.70;;;;;;4854999;29;20102;-84
2023/11/06 04:33:55;;;;;;;1.80;0.60;;;10.80;61.60;;;;;;4841227;29;20045;-85
2023/11/06 04:36:22;;;;;;;2.10;0.55;;;10.90;61.40;;;;;;4860302;29;20458;-84
2023/11/06 04:38:49;;;;;;;1.35;0.60;;;10.80;61.40;;;;;;4840188;29;20050;-84
2023/11/06 04:41:16;;;;;;;1.40;0.60;;;10.80;61.60;;;;;;4858420;29;20132;-84
2023/11/06 04:43:43;;;;;;;2.17;0.80;;;10.80;61.70;;;;;;4843438;29;20105;-84
2023/11/06 04:46:10;;;;;;;3.33;0.68;;;10.90;61.60;;;;;;4861089;29;20553;-83
2023/11/06 04:48:37;;;;;;;1.63;0.80;;;10.80;61.70;;;;;;4851074;29;20062;-84
2023/11/06 04:51:05;;;;;;;2.80;0.73;;;10.80;61.80;;;;;;4858419;29;20398;-85
2023/11/06 04:53:33;;;;;;;2.00;0.60;;;10.80;61.90;;;;;;4858070;29;20495;-85
2023/11/06 04:56:04;;;;;;;2.75;0.82;;;10.80;62.10;;;;;;4863126;29;20054;-85
2023/11/06 04:58:31;;;;;;;3.28;0.80;;;10.80;62.00;;;;;;4836968;29;20042;-85
2023/11/06 05:00:59;;;;;;;4.78;0.80;;;10.80;61.70;;;;;;4858291;29;20053;-84
2023/11/06 05:03:28;;;;;;;1.95;0.65;;;10.80;61.90;;;;;;4857573;29;20144;-84
2023/11/06 05:05:56;;;;;;;4.77;0.80;;;10.80;62.00;;;;;;4842443;29;20049;-84
2023/11/06 05:08:23;;;;;;;2.92;0.70;;;10.70;62.20;;;;;;4843959;29;20508;-85
2023/11/06 05:10:50;;;;;;;2.10;0.60;;;10.70;62.20;;;;;;4848506;29;20102;-85
2023/11/06 05:13:17;;;;;;;3.22;0.65;;;10.70;62.40;;;;;;4841931;29;20050;-85
2023/11/06 05:15:44;;;;;;;2.85;0.70;;;10.70;62.50;;;;;;4842795;29;20058;-86
2023/11/06 05:18:11;;;;;;;1.53;0.63;;;10.70;62.60;;;;;;4845492;29;20081;-85
2023/11/06 05:20:42;;;;;;;2.20;0.75;;;10.70;62.50;;;;;;4841484;29;20050;-84
2023/11/06 05:23:09;;;;;;;1.88;0.63;;;10.70;62.50;;;;;;4842624;29;20054;-85
2023/11/06 05:25:36;;;;;;;3.85;0.75;;;10.70;62.30;;;;;;4841758;29;20054;-85
2023/11/06 05:28:04;;;;;;;1.95;0.60;;;10.60;62.40;;;;;;4856694;29;20054;-85
2023/11/06 05:30:31;;;;;;;2.07;0.90;;;10.60;62.30;;;;;;4843795;29;20208;-85
2023/11/06 05:32:58;;;;;;;2.35;0.70;;;10.70;62.10;;;;;;4858168;29;20048;-85
2023/11/06 05:35:25;;;;;;;3.20;0.98;;;10.70;62.30;;;;;;4839579;29;20044;-85
2023/11/06 05:37:52;;;;;;;4.15;1.33;;;10.80;62.40;;;;;;4859769;29;20046;-85
2023/11/06 05:40:20;;;;;;;3.28;0.75;;;10.70;62.20;;;;;;4841554;29;20046;-85
2023/11/06 05:42:47;;;;;;;3.20;0.70;;;10.70;62.10;;;;;;4858016;29;20046;-86
2023/11/06 05:45:15;;;;;;;1.20;0.50;;;10.70;61.70;;;;;;4851580;29;20077;-86
2023/11/06 05:47:42;;;;;;;3.80;0.80;;;10.70;62.00;;;;;;4842940;29;20046;-86
2023/11/06 05:50:09;;;;;;;3.67;0.70;;;10.80;61.90;;;;;;4842034;29;20038;-84
2023/11/06 05:52:39;;;;;;;1.85;0.80;;;10.80;61.90;;;;;;4856904;29;20522;-84
2023/11/06 05:55:07;;;;;;;1.83;0.60;;;10.80;62.00;;;;;;4857117;29;20038;-85
2023/11/06 05:57:34;;;;;;;3.75;0.90;;;10.90;62.10;;;;;;4841371;29;20054;-86
2023/11/06 06:00:03;;;;;;;3.33;1.30;;;10.90;62.40;;;;;;4857087;29;20111;-85
2023/11/06 06:02:38;;;;;;;3.33;1.20;;;10.90;62.30;;;;;;4842333;29;20061;-85
2023/11/06 06:05:06;;;;;;;5.32;1.77;;;11.00;62.20;;;;;;4856967;29;20061;-85
2023/11/06 06:07:34;;;;;;;4.87;2.27;;;11.00;62.00;;;;;;4845518;29;20054;-85
2023/11/06 06:10:01;;;;;;;4.72;2.40;;;11.00;62.40;;;;;;4856464;29;20077;-84
2023/11/06 06:12:28;;;;;;;5.85;2.70;;;11.00;62.00;;;;;;4840881;29;20041;-83
2023/11/06 06:14:55;;;;;;;4.97;1.80;;;11.10;62.20;;;;;;4840407;29;20664;-84
2023/11/06 06:17:22;;;;;;;4.30;1.00;;;11.20;62.20;;;;;;4840819;29;20488;-84
2023/11/06 06:19:50;;;;;;;2.60;1.00;;;11.20;61.90;;;;;;4838926;29;20050;-84
2023/11/06 06:22:17;;;;;;;1.95;0.80;;;11.20;61.70;;;;;;4843695;29;20071;-83
2023/11/06 06:24:45;;;;;;;2.40;0.88;;;11.30;61.50;;;;;;4852070;29;20405;-83
2023/11/06 06:27:12;;;;;;;1.42;0.63;;;11.30;61.20;;;;;;4840427;29;20069;-83
2023/11/06 06:29:39;;;;;;;8.45;2.80;;;11.40;61.30;;;;;;4840707;29;20049;-83
2023/11/06 06:32:07;;;;;;;5.07;1.40;;;11.40;61.10;;;;;;4844964;29;20052;-83
2023/11/06 06:34:34;;;;;;;4.22;1.42;;;11.50;61.40;;;;;;4856096;29;20110;-83
2023/11/06 06:37:01;;;;;;;2.33;0.75;;;11.50;61.20;;;;;;4840563;29;20061;-85
2023/11/06 06:39:28;;;;;;;3.10;1.50;;;11.50;61.10;;;;;;4855902;29;20400;-83
2023/11/06 06:41:55;;;;;;;3.25;1.10;;;11.40;61.00;;;;;;4840991;29;20102;-83
2023/11/06 06:44:22;;;;;;;3.17;0.83;;;11.40;60.90;;;;;;4853970;29;20054;-83
2023/11/06 06:46:49;;;;;;;2.70;1.00;;;11.50;61.10;;;;;;4840648;29;20094;-83
2023/11/06 06:49:16;;;;;;;2.90;0.80;;;11.50;61.30;;;;;;4854227;29;20069;-82
2023/11/06 06:51:43;;;;;;;4.05;0.80;;;11.50;61.10;;;;;;4839742;29;20050;-83
2023/11/06 06:54:10;;;;;;;4.30;0.80;;;11.50;61.70;;;;;;4838780;29;20141;-83
2023/11/06 06:56:37;;;;;;;4.60;1.60;;;11.50;61.70;;;;;;4833950;29;20060;-83
2023/11/06 06:59:05;;;;;;;11.30;6.35;;;11.40;61.90;;;;;;4839508;29;20053;-83
2023/11/06 07:01:33;;;;;;;21.67;13.65;;;11.40;62.00;;;;;;4824831;29;20060;-82
2023/11/06 07:04:00;;;;;;;6.65;2.72;;;11.40;62.20;;;;;;4840530;29;20501;-82
2023/11/06 07:06:28;;;;;;;5.28;2.05;;;11.40;62.40;;;;;;4839966;29;20050;-82
2023/11/06 07:08:57;;;;;;;4.60;1.40;;;11.30;62.60;;;;;;4842040;29;20140;-83
2023/11/06 07:11:24;;;;;;;3.75;1.15;;;11.40;62.80;;;;;;4839870;29;20049;-83
2023/11/06 07:13:51;;;;;;;2.70;0.75;;;11.30;62.80;;;;;;4855337;29;20138;-82
2023/11/06 07:16:19;;;;;;;2.17;0.60;;;11.30;63.00;;;;;;4839813;29;20045;-82
2023/11/06 07:18:46;;;;;;;3.95;1.20;;;11.20;63.20;;;;;;4839502;29;20137;-82
2023/11/06 07:21:13;;;;;;;5.87;0.90;;;11.20;63.40;;;;;;4839784;29;20073;-83
2023/11/06 07:23:40;;;;;;;2.97;0.82;;;11.20;63.20;;;;;;4839809;29;20064;-82
2023/11/06 07:26:07;;;;;;;4.55;0.90;;;11.20;63.60;;;;;;4838790;29;20042;-82
2023/11/06 07:28:34;;;;;;;3.00;1.10;;;11.20;63.80;;;;;;4854662;29;20129;-83
2023/11/06 07:31:01;;;;;;;2.75;0.80;;;11.30;63.80;;;;;;4839494;29;20102;-82
2023/11/06 07:33:29;;;;;;;2.63;0.80;;;11.20;63.20;;;;;;4854768;29;20442;-82
2023/11/06 07:35:56;;;;;;;3.20;1.10;;;11.20;63.10;;;;;;4854717;29;20057;-83
2023/11/06 07:38:24;;;;;;;1.92;0.70;;;11.20;63.40;;;;;;4855093;29;20045;-83
2023/11/06 07:40:51;;;;;;;7.03;1.00;;;11.20;63.60;;;;;;4839291;29;20053;-83
2023/11/06 07:43:18;;;;;;;3.97;0.90;;;11.20;63.50;;;;;;4839404;29;20050;-82
2023/11/06 07:45:45;;;;;;;4.13;0.90;;;11.30;63.30;;;;;;4839327;29;20505;-84
2023/11/06 07:48:13;;;;;;;2.75;0.85;;;11.30;63.40;;;;;;4854416;29;20113;-82
2023/11/06 07:50:40;;;;;;;3.05;0.90;;;11.30;63.70;;;;;;4837035;29;20060;-82
2023/11/06 07:53:07;;;;;;;4.05;0.90;;;11.30;63.40;;;;;;4839468;29;20145;-82
2023/11/06 07:55:34;;;;;;;3.30;0.90;;;11.30;63.40;;;;;;4840517;29;20049;-82
2023/11/06 07:58:01;;;;;;;6.13;1.43;;;11.30;63.60;;;;;;4854647;29;20472;-83
2023/11/06 08:00:28;;;;;;;5.10;1.55;;;11.40;63.70;;;;;;4840189;29;20042;-83
2023/11/06 08:03:12;;;;;;;6.70;3.58;;;11.40;63.50;;;;;;4852345;29;20052;-83
2023/11/06 08:05:40;;;;;;;3.35;1.08;;;11.40;63.50;;;;;;4839240;29;20057;-82
2023/11/06 08:08:09;;;;;;;4.32;0.80;;;11.30;63.90;;;;;;4838601;29;20141;-83
2023/11/06 08:10:36;;;;;;;3.37;1.10;;;11.30;63.90;;;;;;4853737;29;20038;-82
2023/11/06 08:13:03;;;;;;;3.42;0.90;;;11.20;64.30;;;;;;4839021;29;20103;-83
2023/11/06 08:15:30;;;;;;;3.53;0.82;;;11.20;64.00;;;;;;4851112;29;20038;-83
2023/11/06 08:17:57;;;;;;;6.80;0.90;;;11.20;63.90;;;;;;4858187;29;20065;-83
2023/11/06 08:20:26;;;;;;;3.17;0.88;;;11.10;64.10;;;;;;4842829;29;20048;-82
2023/11/06 08:22:53;;;;;;;3.33;0.93;;;11.20;64.00;;;;;;4842866;29;20094;-83
2023/11/06 08:25:24;;;;;;;3.60;0.90;;;11.30;64.30;;;;;;4842535;29;20050;-82
2023/11/06 08:27:52;;;;;;;4.50;1.10;;;11.50;64.10;;;;;;4842975;29;20496;-83
2023/11/06 08:30:19;;;;;;;4.35;0.70;;;11.50;64.20;;;;;;4842701;29;20044;-83
2023/11/06 08:32:46;;;;;;;5.03;1.58;;;11.60;63.80;;;;;;4842156;29;20053;-83
2023/11/06 08:35:13;;;;;;;5.30;1.67;;;11.70;63.50;;;;;;4843529;29;20044;-83
2023/11/06 08:37:40;;;;;;;6.55;1.27;;;11.90;63.50;;;;;;4857537;29;20106;-83
2023/11/06 08:40:08;;;;;;;2.70;0.55;;;12.00;63.60;;;;;;4857412;29;20046;-83
2023/11/06 08:42:37;;;;;;;5.25;1.30;;;12.00;62.00;;;;;;4857566;29;20556;-83
2023/11/06 08:45:04;;;;;;;5.75;1.00;;;12.10;62.40;;;;;;4842633;29;20072;-83
2023/11/06 08:47:31;;;;;;;3.33;0.70;;;12.20;61.80;;;;;;4857344;29;20041;-83
2023/11/06 08:49:58;;;;;;;3.72;0.80;;;12.10;61.20;;;;;;4857461;29;20426;-82
2023/11/06 08:52:26;;;;;;;5.65;1.60;;;12.10;61.90;;;;;;4839853;29;20047;-82
2023/11/06 08:54:53;;;;;;;7.07;1.40;;;12.10;62.20;;;;;;4844528;29;20045;-82
2023/11/06 08:57:21;;;;;;;8.48;2.92;;;12.00;62.10;;;;;;4844405;29;20561;-81
2023/11/06 08:59:48;;;;;;;5.70;2.10;;;12.00;62.50;;;;;;4842277;29;20056;-82
2023/11/06 09:02:15;;;;;;;8.07;3.03;;;12.00;63.10;;;;;;4843026;29;20057;-82
2023/11/06 09:04:45;;;;;;;14.48;5.47;;;12.00;62.50;;;;;;4850277;29;20420;-84
2023/11/06 09:07:14;;;;;;;27.80;13.77;;;12.00;62.40;;;;;;4858394;29;20539;-82
2023/11/06 09:09:41;;;;;;;18.05;8.52;;;12.00;62.40;;;;;;4842821;29;20054;-82
2023/11/06 09:12:08;;;;;;;10.00;3.17;;;11.90;62.70;;;;;;4848933;29;20408;-82
2023/11/06 09:14:36;;;;;;;13.25;4.97;;;12.00;63.10;;;;;;4841722;29;20049;-82
2023/11/06 09:17:03;;;;;;;20.10;9.00;;;12.00;63.10;;;;;;4858377;29;20061;-82
2023/11/06 09:19:30;;;;;;;21.08;11.13;;;12.10;62.30;;;;;;4859041;29;20050;-83
2023/11/06 09:21:58;;;;;;;12.52;5.72;;;;;;;;;;4856871;29;20042;-83
2023/11/06 09:24:28;;;;;;;5.97;2.33;;;12.20;62.80;;;;;;4857569;29;20051;-82
2023/11/06 09:26:56;;;;;;;4.28;1.20;;;12.30;61.90;;;;;;4841744;29;20081;-82
2023/11/06 09:29:23;;;;;;;4.38;1.50;;;12.40;62.00;;;;;;4841607;29;20046;-82
2023/11/06 09:31:51;;;;;;;4.10;1.02;;;12.50;62.20;;;;;;4845451;29;20061;-83
2023/11/06 09:34:18;;;;;;;2.72;1.20;;;12.60;61.50;;;;;;4841722;29;20054;-83
2023/11/06 09:36:45;;;;;;;3.53;1.00;;;12.70;61.10;;;;;;4837885;29;20173;-82
2023/11/06 09:39:12;;;;;;;4.82;1.10;;;12.80;61.30;;;;;;4840761;29;20458;-83
2023/11/06 09:41:39;;;;;;;6.70;1.90;;;12.80;60.80;;;;;;4857796;29;20046;-83
2023/11/06 09:44:06;;;;;;;5.45;1.52;;;12.80;60.50;;;;;;4841333;29;20084;-83
2023/11/06 09:46:33;;;;;;;3.67;1.10;;;12.80;61.10;;;;;;4855300;29;20053;-83
2023/11/06 09:49:06;;;;;;;3.67;1.27;;;12.80;60.50;;;;;;4845426;29;20374;-84
2023/11/06 09:51:36;;;;;;;53.08;16.55;;;12.80;60.40;;;;;;4857029;29;20057;-86
2023/11/06 09:54:04;;;;;;;26.92;10.80;;;12.90;60.40;;;;;;4840617;29;20050;-88
2023/11/06 09:56:33;;;;;;;21.88;10.05;;;12.80;60.50;;;;;;4842466;29;20042;-89
2023/11/06 09:59:02;;;;;;;13.70;6.25;;;12.90;60.60;;;;;;4835421;29;20054;-88
2023/11/06 10:01:30;;;;;;;17.33;8.83;;;12.90;60.60;;;;;;4859013;29;20137;-88
2023/11/06 10:03:57;;;;;;;7.25;1.95;;;12.90;60.10;;;;;;4860781;29;20067;-88
2023/11/06 10:06:24;;;;;;;6.15;0.80;;;13.00;60.50;;;;;;4860264;29;20472;-88
2023/11/06 10:08:51;;;;;;;5.88;1.30;;;12.90;59.40;;;;;;4858760;29;20069;-89
2023/11/06 10:11:25;;;;;;;2.75;1.02;;;12.90;60.40;;;;;;4858146;29;20079;-88
2023/11/06 10:13:54;;;;;;;5.10;1.00;;;12.80;60.20;;;;;;4843455;29;20057;-88
2023/11/06 10:16:23;;;;;;;3.33;1.10;;;12.80;60.00;;;;;;4843540;29;20092;-88
2023/11/06 10:19:07;;;;;;;3.38;1.13;;;12.90;59.70;;;;;;4843335;29;20062;-88
2023/11/06 10:21:34;;;;;;;11.43;2.05;;;12.90;59.80;;;;;;4843242;29;20526;-88
2023/11/06 10:24:04;;;;;;;4.10;1.42;;;13.00;60.60;;;;;;4842934;29;20050;-89
2023/11/06 10:26:32;;;;;;;6.07;1.30;;;13.20;59.60;;;;;;4858688;29;20393;-89
2023/11/06 12:18:58;;;;;;;32.45;12.77;;;12.60;60.30;;;;;;5153057;27;20425;-88
2023/11/06 12:21:26;;;;;;;17.33;5.63;;;13.70;56.70;;;;;;5118017;27;20043;-88
2023/11/06 12:23:54;;;;;;;15.45;6.43;;;13.80;57.20;;;;;;5151699;27;20050;-88
2023/11/06 12:26:21;;;;;;;11.90;6.72;;;14.00;58.00;;;;;;5134356;27;20104;-88
2023/11/06 12:28:52;;;;;;;3.72;1.30;;;14.10;57.00;;;;;;5150924;27;20066;-88
2023/11/06 12:31:19;;;;;;;4.22;1.27;;;14.20;56.20;;;;;;5151557;27;20047;-88
2023/11/06 12:33:46;;;;;;;3.33;1.10;;;14.20;56.30;;;;;;5134170;27;20059;-88
2023/11/06 12:36:31;;;;;;;2.85;0.77;;;14.20;55.80;;;;;;5117484;27;20096;-88
2023/11/06 12:39:00;;;;;;;6.00;1.10;;;14.10;56.00;;;;;;5117456;27;20050;-88
2023/11/06 12:41:29;;;;;;;3.90;1.52;;;14.00;55.90;;;;;;5134097;27;20088;-88
2023/11/06 12:43:56;;;;;;;3.88;1.23;;;14.00;55.60;;;;;;5151352;27;20039;-88
2023/11/06 12:46:23;;;;;;;2.27;0.80;;;14.00;56.30;;;;;;5117086;27;20084;-88
2023/11/06 12:49:01;;;;;;;3.92;1.27;;;14.00;56.10;;;;;;5151060;27;20043;-88
2023/11/06 12:51:31;;;;;;;3.22;1.10;;;14.00;56.60;;;;;;5116888;27;20526;-88
2023/11/06 12:53:58;;;;;;;3.10;1.00;;;13.90;56.90;;;;;;5116557;27;20051;-88
2023/11/06 12:56:27;;;;;;;3.85;1.30;;;13.80;56.60;;;;;;5133653;27;21942;-88
2023/11/06 12:58:55;;;;;;;5.63;1.10;;;13.80;56.10;;;;;;5116812;27;20043;-88
2023/11/06 13:01:27;;;;;;;4.13;1.10;;;13.80;57.30;;;;;;5116917;27;20088;-88
2023/11/06 13:03:54;;;;;;;4.30;1.63;;;13.70;56.30;;;;;;5116812;27;20053;-88
2023/11/06 13:06:22;;;;;;;4.13;1.20;;;13.70;56.80;;;;;;5116736;27;20142;-88
2023/11/06 13:08:49;;;;;;;4.03;1.33;;;13.80;56.60;;;;;;5116897;27;20433;-88
2023/11/06 13:11:16;;;;;;;3.83;1.37;;;13.80;56.40;;;;;;5116486;27;20042;-88
2023/11/06 13:14:00;;;;;;;6.47;1.40;;;13.80;56.50;;;;;;5118947;27;20043;-89
2023/11/06 13:16:29;;;;;;;3.85;1.17;;;13.70;56.30;;;;;;5116486;27;20555;-88
2023/11/06 13:18:56;;;;;;;3.13;1.13;;;13.80;56.50;;;;;;5124976;27;20510;-88
2023/11/06 13:21:29;;;;;;;3.85;1.25;;;13.90;56.30;;;;;;5102883;27;20051;-88
2023/11/06 13:23:56;;;;;;;4.17;1.10;;;13.90;55.20;;;;;;5102772;27;20100;-88
2023/11/06 13:26:23;;;;;;;5.07;2.15;;;14.00;55.20;;;;;;5102694;27;20484;-88
2023/11/06 13:28:51;;;;;;;2.80;1.15;;;14.00;54.60;;;;;;5119484;27;20047;-88
2023/11/06 13:31:21;;;;;;;6.03;1.35;;;13.90;54.90;;;;;;5102648;27;20134;-88
2023/11/06 13:46:41;;;;;;;4.03;1.20;;;13.80;54.70;;;;;;5102865;27;20807;-90
2023/11/06 13:49:11;;;;;;;3.67;1.05;;;13.70;55.20;;;;;;5069386;28;20044;-90
2023/11/06 13:51:42;;;;;;;3.27;1.30;;;13.50;55.60;;;;;;5053265;28;20044;-91
2023/11/06 13:54:34;;;;;;;3.83;1.55;;;13.50;55.80;;;;;;5069994;28;20045;-91
2023/11/06 13:56:57;;;;;;;4.20;1.23;;;13.50;55.50;;;;;;5058370;28;20097;-90
2023/11/06 13:59:31;;;;;;;4.15;1.13;;;13.50;55.90;;;;;;5061541;28;20062;-90
2023/11/06 14:02:05;;;;;;;2.53;0.70;;;13.50;56.20;;;;;;5069865;28;20099;-90
2023/11/06 14:04:37;;;;;;;2.67;0.90;;;13.50;56.30;;;;;;5069626;28;20048;-92
2023/11/06 14:07:11;;;;;;;5.35;1.00;;;13.50;55.20;;;;;;5069353;28;20041;-91
2023/11/06 14:09:42;;;;;;;4.47;1.15;;;13.50;55.30;;;;;;5085759;28;20045;-89
2023/11/06 14:12:13;;;;;;;3.47;0.88;;;13.50;55.80;;;;;;5068973;28;20044;-90
2023/11/06 14:14:40;;;;;;;2.53;1.10;;;13.60;55.80;;;;;;5066247;28;20045;-90
2023/11/06 14:17:09;;;;;;;3.80;1.20;;;13.50;56.30;;;;;;5052492;28;20128;-89
2023/11/06 14:19:40;;;;;;;4.95;1.20;;;13.50;56.00;;;;;;5067265;28;20045;-90
2023/11/06 14:22:09;;;;;;;4.35;0.90;;;13.50;56.40;;;;;;5052457;28;20041;-90
2023/11/06 14:24:37;;;;;;;7.00;1.00;;;13.50;56.30;;;;;;5068491;28;20051;-91
2023/11/06 14:27:05;;;;;;;5.32;1.15;;;13.50;56.90;;;;;;5068085;28;20508;-90
2023/11/06 14:29:33;;;;;;;3.90;1.10;;;13.40;56.60;;;;;;5064517;28;20203;-89
2023/11/06 14:32:00;;;;;;;7.35;1.20;;;13.40;56.90;;;;;;5067871;28;20051;-90
2023/11/06 14:34:27;;;;;;;3.80;1.08;;;13.30;57.10;;;;;;5066295;28;20044;-90
2023/11/06 14:36:54;;;;;;;3.75;1.15;;;13.30;57.30;;;;;;5052115;28;20044;-90
2023/11/06 14:39:21;;;;;;;5.22;1.38;;;13.30;57.50;;;;;;5068328;28;20158;-90
2023/11/06 14:41:48;;;;;;;3.33;1.20;;;13.30;58.10;;;;;;5051576;28;20489;-90
2023/11/06 14:44:18;;;;;;;4.70;1.10;;;13.30;57.30;;;;;;5067704;28;20045;-90
2023/11/06 14:46:45;;;;;;;5.60;1.00;;;13.20;57.50;;;;;;5059604;28;20037;-90
2023/11/06 14:49:12;;;;;;;3.33;0.95;;;13.20;57.30;;;;;;5055004;28;20467;-90
2023/11/06 14:51:40;;;;;;;4.85;0.93;;;13.10;57.50;;;;;;5054343;28;20045;-89
2023/11/06 14:54:08;;;;;;;5.87;1.30;;;13.20;57.70;;;;;;5054688;28;20447;-90